sensor_id;sensor_type;location;lat;lon;timestamp;pressure;altitude;pressure_sealevel;temperature;humidity
34658;BME280;20865;43.312;27.152;2023-02-19T00:01:30;100389.37;;;17.92;34.71
34658;BME280;20865;43.312;27.152;2023-02-19T00:04:01;100393.60;;;17.89;34.89
34658;BME280;20865;43.312;27.152;2023-02-19T00:06:31;100393.42;;;17.92;34.85
34658;BME280;20865;43.312;27.152;2023-02-19T00:08:59;100389.82;;;17.92;34.89
34658;BME280;20865;43.312;27.152;2023-02-19T00:11:30;100386.36;;;17.90;34.93
34658;BME280;20865;43.312;27.152;2023-02-19T00:13:59;100381.64;;;17.93;34.83
34658;BME280;20865;43.312;27.152;2023-02-19T00:16:33;100385.08;;;17.88;34.90
34658;BME280;20865;43.312;27.152;2023-02-19T00:19:03;100385.50;;;17.89;34.92
34658;BME280;20865;43.312;27.152;2023-02-19T00:21:30;100388.47;;;17.92;34.89
34658;BME280;20865;43.312;27.152;2023-02-19T00:24:03;100385.39;;;17.91;34.95
34658;BME280;20865;43.312;27.152;2023-02-19T00:26:31;100383.97;;;17.92;34.87
34658;BME280;20865;43.312;27.152;2023-02-19T00:29:00;100375.86;;;17.92;34.84
34658;BME280;20865;43.312;27.152;2023-02-19T00:31:33;100382.61;;;17.92;34.88
34658;BME280;20865;43.312;27.152;2023-02-19T00:34:03;100375.93;;;17.91;34.89
34658;BME280;20865;43.312;27.152;2023-02-19T00:36:33;100379.50;;;17.91;34.85
34658;BME280;20865;43.312;27.152;2023-02-19T00:39:01;100377.46;;;17.88;34.80
34658;BME280;20865;43.312;27.152;2023-02-19T00:41:29;100372.19;;;17.93;34.79
34658;BME280;20865;43.312;27.152;2023-02-19T00:44:06;100363.88;;;17.89;34.87
34658;BME280;20865;43.312;27.152;2023-02-19T00:46:35;100349.02;;;17.89;34.95
34658;BME280;20865;43.312;27.152;2023-02-19T00:49:06;100346.20;;;17.91;34.99
34658;BME280;20865;43.312;27.152;2023-02-19T00:51:36;100345.34;;;17.90;35.05
34658;BME280;20865;43.312;27.152;2023-02-19T00:54:05;100331.52;;;17.88;35.09
34658;BME280;20865;43.312;27.152;2023-02-19T00:56:33;100328.81;;;17.88;35.14
34658;BME280;20865;43.312;27.152;2023-02-19T00:59:02;100323.80;;;17.89;35.17
34658;BME280;20865;43.312;27.152;2023-02-19T01:01:30;100324.39;;;17.87;35.11
34658;BME280;20865;43.312;27.152;2023-02-19T01:03:58;100326.42;;;17.90;35.06
34658;BME280;20865;43.312;27.152;2023-02-19T01:06:25;100322.01;;;17.96;34.99
34658;BME280;20865;43.312;27.152;2023-02-19T01:08:55;100320.06;;;17.98;34.93
34658;BME280;20865;43.312;27.152;2023-02-19T01:11:23;100326.14;;;17.95;34.98
34658;BME280;20865;43.312;27.152;2023-02-19T01:13:50;100318.53;;;18.01;34.79
34658;BME280;20865;43.312;27.152;2023-02-19T01:16:20;100324.80;;;18.02;34.81
34658;BME280;20865;43.312;27.152;2023-02-19T01:18:50;100329.54;;;18.05;34.72
34658;BME280;20865;43.312;27.152;2023-02-19T01:21:20;100336.11;;;18.08;34.47
34658;BME280;20865;43.312;27.152;2023-02-19T01:23:49;100324.31;;;18.02;34.47
34658;BME280;20865;43.312;27.152;2023-02-19T01:26:20;100321.90;;;17.98;34.51
34658;BME280;20865;43.312;27.152;2023-02-19T01:28:48;100319.97;;;17.93;34.53
34658;BME280;20865;43.312;27.152;2023-02-19T01:31:18;100314.93;;;17.87;34.60
34658;BME280;20865;43.312;27.152;2023-02-19T01:33:48;100312.77;;;17.77;34.71
34658;BME280;20865;43.312;27.152;2023-02-19T01:36:17;100310.31;;;17.73;34.70
34658;BME280;20865;43.312;27.152;2023-02-19T01:38:45;100306.31;;;17.64;34.83
34658;BME280;20865;43.312;27.152;2023-02-19T01:41:19;100305.45;;;17.63;34.85
34658;BME280;20865;43.312;27.152;2023-02-19T01:46:38;100306.88;;;17.55;34.95
34658;BME280;20865;43.312;27.152;2023-02-19T01:49:21;100306.70;;;17.58;34.96
34658;BME280;20865;43.312;27.152;2023-02-19T01:52:13;100302.87;;;17.46;35.01
34658;BME280;20865;43.312;27.152;2023-02-19T01:54:21;100292.45;;;17.40;35.18
34658;BME280;20865;43.312;27.152;2023-02-19T01:56:50;100300.94;;;17.41;35.22
34658;BME280;20865;43.312;27.152;2023-02-19T01:59:18;100297.61;;;17.36;35.30
34658;BME280;20865;43.312;27.152;2023-02-19T02:01:46;100293.01;;;17.38;35.22
34658;BME280;20865;43.312;27.152;2023-02-19T02:04:16;100288.82;;;17.32;35.22
34658;BME280;20865;43.312;27.152;2023-02-19T02:06:47;100284.67;;;17.27;35.34
34658;BME280;20865;43.312;27.152;2023-02-19T02:09:17;100286.67;;;17.23;35.36
34658;BME280;20865;43.312;27.152;2023-02-19T02:12:05;100287.61;;;17.22;35.40
34658;BME280;20865;43.312;27.152;2023-02-19T02:14:35;100274.98;;;17.16;35.44
34658;BME280;20865;43.312;27.152;2023-02-19T02:17:29;100275.53;;;17.13;35.54
34658;BME280;20865;43.312;27.152;2023-02-19T02:20:09;100276.40;;;17.14;35.41
34658;BME280;20865;43.312;27.152;2023-02-19T02:25:45;100278.89;;;17.10;35.41
34658;BME280;20865;43.312;27.152;2023-02-19T02:28:32;100281.17;;;17.02;35.44
34658;BME280;20865;43.312;27.152;2023-02-19T02:31:11;100288.84;;;17.01;35.29
34658;BME280;20865;43.312;27.152;2023-02-19T02:36:17;100294.91;;;16.81;35.53
34658;BME280;20865;43.312;27.152;2023-02-19T02:38:46;100288.72;;;16.79;35.67
34658;BME280;20865;43.312;27.152;2023-02-19T02:41:15;100282.55;;;16.77;35.71
34658;BME280;20865;43.312;27.152;2023-02-19T02:43:42;100282.14;;;16.76;35.69
34658;BME280;20865;43.312;27.152;2023-02-19T02:46:12;100284.35;;;16.77;35.62
34658;BME280;20865;43.312;27.152;2023-02-19T02:48:44;100283.59;;;16.75;35.61
34658;BME280;20865;43.312;27.152;2023-02-19T02:54:13;100285.32;;;16.76;35.55
34658;BME280;20865;43.312;27.152;2023-02-19T02:56:54;100280.30;;;16.77;35.48
34658;BME280;20865;43.312;27.152;2023-02-19T02:59:25;100279.66;;;16.80;35.36
34658;BME280;20865;43.312;27.152;2023-02-19T03:02:14;100292.05;;;16.84;35.19
34658;BME280;20865;43.312;27.152;2023-02-19T03:07:44;100302.52;;;16.82;34.95
34658;BME280;20865;43.312;27.152;2023-02-19T03:10:09;100309.75;;;16.81;34.82
34658;BME280;20865;43.312;27.152;2023-02-19T03:12:39;100304.05;;;16.70;34.87
34658;BME280;20865;43.312;27.152;2023-02-19T03:15:28;100312.25;;;16.60;34.91
34658;BME280;20865;43.312;27.152;2023-02-19T03:18:15;100320.51;;;16.48;35.05
34658;BME280;20865;43.312;27.152;2023-02-19T03:21:03;100322.63;;;16.26;35.50
34658;BME280;20865;43.312;27.152;2023-02-19T03:23:34;100328.81;;;16.19;35.65
34658;BME280;20865;43.312;27.152;2023-02-19T03:26:22;100339.52;;;16.03;35.88
34658;BME280;20865;43.312;27.152;2023-02-19T03:28:52;100340.86;;;15.86;36.37
34658;BME280;20865;43.312;27.152;2023-02-19T03:31:39;100341.13;;;15.90;36.23
34658;BME280;20865;43.312;27.152;2023-02-19T03:34:11;100325.67;;;15.76;36.54
34658;BME280;20865;43.312;27.152;2023-02-19T03:36:42;100329.14;;;15.78;36.66
34658;BME280;20865;43.312;27.152;2023-02-19T03:39:12;100319.17;;;15.80;36.68
34658;BME280;20865;43.312;27.152;2023-02-19T03:44:41;100321.71;;;15.83;36.50
34658;BME280;20865;43.312;27.152;2023-02-19T03:52:31;100332.56;;;15.90;36.00
34658;BME280;20865;43.312;27.152;2023-02-19T03:55:30;100331.61;;;15.91;35.95
34658;BME280;20865;43.312;27.152;2023-02-19T03:57:49;100335.56;;;15.84;35.94
34658;BME280;20865;43.312;27.152;2023-02-19T04:06:02;100344.52;;;15.85;35.68
34658;BME280;20865;43.312;27.152;2023-02-19T04:08:32;100340.17;;;15.91;35.56
34658;BME280;20865;43.312;27.152;2023-02-19T04:11:01;100347.75;;;16.00;35.51
34658;BME280;20865;43.312;27.152;2023-02-19T04:13:32;100355.37;;;16.09;35.30
34658;BME280;20865;43.312;27.152;2023-02-19T04:16:06;100366.23;;;16.16;35.16
34658;BME280;20865;43.312;27.152;2023-02-19T04:18:38;100365.82;;;16.24;35.02
34658;BME280;20865;43.312;27.152;2023-02-19T04:21:07;100366.53;;;16.28;34.89
34658;BME280;20865;43.312;27.152;2023-02-19T04:23:38;100367.56;;;16.34;34.79
34658;BME280;20865;43.312;27.152;2023-02-19T04:26:06;100359.22;;;16.38;34.73
34658;BME280;20865;43.312;27.152;2023-02-19T04:28:35;100357.17;;;16.43;34.62
34658;BME280;20865;43.312;27.152;2023-02-19T04:31:04;100358.20;;;16.50;34.51
34658;BME280;20865;43.312;27.152;2023-02-19T04:33:32;100357.07;;;16.54;34.37
34658;BME280;20865;43.312;27.152;2023-02-19T04:36:00;100358.64;;;16.58;34.20
34658;BME280;20865;43.312;27.152;2023-02-19T04:38:27;100348.02;;;16.63;34.08
34658;BME280;20865;43.312;27.152;2023-02-19T04:40:55;100374.62;;;16.70;33.93
34658;BME280;20865;43.312;27.152;2023-02-19T04:43:22;100378.00;;;16.75;33.82
34658;BME280;20865;43.312;27.152;2023-02-19T04:45:50;100382.27;;;16.79;33.81
34658;BME280;20865;43.312;27.152;2023-02-19T04:48:18;100379.41;;;16.82;33.76
34658;BME280;20865;43.312;27.152;2023-02-19T04:50:45;100380.97;;;16.86;33.71
34658;BME280;20865;43.312;27.152;2023-02-19T04:53:13;100383.19;;;16.86;33.63
34658;BME280;20865;43.312;27.152;2023-02-19T04:55:40;100376.37;;;16.88;33.62
34658;BME280;20865;43.312;27.152;2023-02-19T04:58:08;100369.85;;;16.92;33.62
34658;BME280;20865;43.312;27.152;2023-02-19T05:00:35;100375.73;;;16.92;33.65
34658;BME280;20865;43.312;27.152;2023-02-19T05:03:03;100372.94;;;16.93;33.69
34658;BME280;20865;43.312;27.152;2023-02-19T05:05:31;100377.36;;;16.94;33.72
34658;BME280;20865;43.312;27.152;2023-02-19T05:07:59;100379.20;;;16.94;33.74
34658;BME280;20865;43.312;27.152;2023-02-19T05:10:26;100379.68;;;16.93;33.78
34658;BME280;20865;43.312;27.152;2023-02-19T05:12:54;100386.16;;;16.98;33.69
34658;BME280;20865;43.312;27.152;2023-02-19T05:15:22;100391.01;;;17.00;33.78
34658;BME280;20865;43.312;27.152;2023-02-19T05:17:49;100395.28;;;17.04;33.66
34658;BME280;20865;43.312;27.152;2023-02-19T05:20:17;100404.56;;;17.07;33.81
34658;BME280;20865;43.312;27.152;2023-02-19T05:22:45;100400.41;;;17.08;33.72
34658;BME280;20865;43.312;27.152;2023-02-19T05:25:12;100414.88;;;17.07;33.86
34658;BME280;20865;43.312;27.152;2023-02-19T05:27:40;100415.50;;;17.12;33.91
34658;BME280;20865;43.312;27.152;2023-02-19T05:30:08;100425.55;;;17.18;33.88
34658;BME280;20865;43.312;27.152;2023-02-19T05:32:36;100433.31;;;17.24;33.86
34658;BME280;20865;43.312;27.152;2023-02-19T05:35:04;100425.97;;;17.34;33.80
34658;BME280;20865;43.312;27.152;2023-02-19T05:37:31;100427.28;;;17.59;33.66
34658;BME280;20865;43.312;27.152;2023-02-19T05:39:59;100426.16;;;18.69;32.10
34658;BME280;20865;43.312;27.152;2023-02-19T05:42:27;100422.95;;;20.17;29.89
34658;BME280;20865;43.312;27.152;2023-02-19T05:44:54;100436.70;;;21.56;27.95
34658;BME280;20865;43.312;27.152;2023-02-19T05:47:22;100430.66;;;22.65;26.28
34658;BME280;20865;43.312;27.152;2023-02-19T05:49:49;100429.51;;;23.48;25.37
34658;BME280;20865;43.312;27.152;2023-02-19T05:52:17;100436.73;;;24.04;24.74
34658;BME280;20865;43.312;27.152;2023-02-19T05:54:44;100433.70;;;24.18;24.47
34658;BME280;20865;43.312;27.152;2023-02-19T05:57:12;100424.80;;;24.10;24.55
34658;BME280;20865;43.312;27.152;2023-02-19T05:59:40;100437.99;;;23.94;24.81
34658;BME280;20865;43.312;27.152;2023-02-19T06:02:08;100445.85;;;23.70;25.13
34658;BME280;20865;43.312;27.152;2023-02-19T06:04:36;100451.55;;;23.56;25.33
34658;BME280;20865;43.312;27.152;2023-02-19T06:07:04;100468.90;;;23.49;25.48
34658;BME280;20865;43.312;27.152;2023-02-19T06:09:31;100474.86;;;23.38;25.67
34658;BME280;20865;43.312;27.152;2023-02-19T06:11:59;100472.51;;;23.16;25.80
34658;BME280;20865;43.312;27.152;2023-02-19T06:14:26;100472.62;;;23.09;26.14
34658;BME280;20865;43.312;27.152;2023-02-19T06:16:54;100474.60;;;23.01;26.36
34658;BME280;20865;43.312;27.152;2023-02-19T06:19:21;100476.18;;;22.93;26.42
34658;BME280;20865;43.312;27.152;2023-02-19T06:21:50;100468.80;;;22.76;26.65
34658;BME280;20865;43.312;27.152;2023-02-19T06:24:17;100473.26;;;22.72;26.59
34658;BME280;20865;43.312;27.152;2023-02-19T06:26:45;100482.92;;;22.70;26.68
34658;BME280;20865;43.312;27.152;2023-02-19T06:29:12;100491.19;;;22.63;26.83
34658;BME280;20865;43.312;27.152;2023-02-19T06:31:40;100504.91;;;22.62;26.69
34658;BME280;20865;43.312;27.152;2023-02-19T06:34:08;100511.67;;;22.50;26.65
34658;BME280;20865;43.312;27.152;2023-02-19T06:36:35;100515.81;;;22.38;26.95
34658;BME280;20865;43.312;27.152;2023-02-19T06:39:04;100518.84;;;22.22;27.09
34658;BME280;20865;43.312;27.152;2023-02-19T06:41:32;100519.16;;;22.17;27.25
34658;BME280;20865;43.312;27.152;2023-02-19T06:44:00;100522.80;;;22.10;27.53
34658;BME280;20865;43.312;27.152;2023-02-19T06:46:28;100509.64;;;22.17;27.53
34658;BME280;20865;43.312;27.152;2023-02-19T06:48:55;100518.35;;;22.28;27.52
34658;BME280;20865;43.312;27.152;2023-02-19T06:51:23;100517.53;;;22.33;27.25
34658;BME280;20865;43.312;27.152;2023-02-19T06:53:52;100525.28;;;22.50;27.26
34658;BME280;20865;43.312;27.152;2023-02-19T06:56:25;100522.50;;;22.63;27.03
34658;BME280;20865;43.312;27.152;2023-02-19T06:58:56;100532.80;;;22.76;26.78
34658;BME280;20865;43.312;27.152;2023-02-19T07:01:26;100541.91;;;22.94;26.33
34658;BME280;20865;43.312;27.152;2023-02-19T07:03:54;100544.59;;;23.12;26.53
34658;BME280;20865;43.312;27.152;2023-02-19T07:06:22;100540.38;;;23.25;26.17
34658;BME280;20865;43.312;27.152;2023-02-19T07:08:51;100546.57;;;23.33;25.84
34658;BME280;20865;43.312;27.152;2023-02-19T07:11:20;100547.85;;;23.40;25.79
34658;BME280;20865;43.312;27.152;2023-02-19T07:13:52;100553.78;;;23.56;25.77
34658;BME280;20865;43.312;27.152;2023-02-19T07:16:17;100548.36;;;23.67;25.91
34658;BME280;20865;43.312;27.152;2023-02-19T07:18:44;100551.23;;;23.71;25.46
34658;BME280;20865;43.312;27.152;2023-02-19T07:21:14;100560.02;;;23.86;25.94
34658;BME280;20865;43.312;27.152;2023-02-19T07:23:43;100555.19;;;23.95;25.83
34658;BME280;20865;43.312;27.152;2023-02-19T07:26:12;100564.35;;;24.00;25.62
34658;BME280;20865;43.312;27.152;2023-02-19T07:28:41;100570.64;;;24.12;25.54
34658;BME280;20865;43.312;27.152;2023-02-19T07:31:11;100571.02;;;24.24;25.79
34658;BME280;20865;43.312;27.152;2023-02-19T07:33:38;100571.38;;;24.31;25.51
34658;BME280;20865;43.312;27.152;2023-02-19T07:36:07;100572.23;;;24.25;25.25
34658;BME280;20865;43.312;27.152;2023-02-19T07:38:35;100566.37;;;24.30;25.47
34658;BME280;20865;43.312;27.152;2023-02-19T07:41:04;100566.91;;;24.41;25.42
34658;BME280;20865;43.312;27.152;2023-02-19T07:43:34;100556.85;;;24.41;25.38
34658;BME280;20865;43.312;27.152;2023-02-19T07:46:04;100555.09;;;24.40;25.57
34658;BME280;20865;43.312;27.152;2023-02-19T07:48:32;100546.15;;;24.44;25.61
34658;BME280;20865;43.312;27.152;2023-02-19T07:51:01;100542.92;;;24.39;25.57
34658;BME280;20865;43.312;27.152;2023-02-19T07:53:31;100549.38;;;24.43;25.92
34658;BME280;20865;43.312;27.152;2023-02-19T07:56:01;100555.52;;;24.02;26.00
34658;BME280;20865;43.312;27.152;2023-02-19T07:58:29;100549.81;;;23.49;26.79
34658;BME280;20865;43.312;27.152;2023-02-19T08:01:05;100552.81;;;23.57;26.86
34658;BME280;20865;43.312;27.152;2023-02-19T08:03:26;100563.45;;;23.60;26.73
34658;BME280;20865;43.312;27.152;2023-02-19T08:05:54;100549.20;;;23.57;26.76
34658;BME280;20865;43.312;27.152;2023-02-19T08:08:24;100547.34;;;23.46;26.86
34658;BME280;20865;43.312;27.152;2023-02-19T08:10:51;100547.95;;;23.49;27.16
34658;BME280;20865;43.312;27.152;2023-02-19T08:13:37;100549.81;;;23.49;27.10
34658;BME280;20865;43.312;27.152;2023-02-19T08:18:35;100553.83;;;23.79;26.93
34658;BME280;20865;43.312;27.152;2023-02-19T08:21:03;100555.19;;;23.90;26.57
34658;BME280;20865;43.312;27.152;2023-02-19T08:23:30;100557.28;;;23.97;26.76
34658;BME280;20865;43.312;27.152;2023-02-19T08:26:00;100552.94;;;24.00;27.00
34658;BME280;20865;43.312;27.152;2023-02-19T08:28:28;100554.27;;;24.12;27.01
34658;BME280;20865;43.312;27.152;2023-02-19T08:31:05;100545.94;;;24.24;26.61
34658;BME280;20865;43.312;27.152;2023-02-19T08:33:34;100541.59;;;24.28;26.69
34658;BME280;20865;43.312;27.152;2023-02-19T08:36:06;100537.72;;;24.30;26.49
34658;BME280;20865;43.312;27.152;2023-02-19T08:38:35;100540.80;;;24.37;26.27
34658;BME280;20865;43.312;27.152;2023-02-19T08:41:04;100534.97;;;24.47;26.69
34658;BME280;20865;43.312;27.152;2023-02-19T08:43:33;100532.99;;;24.49;26.78
34658;BME280;20865;43.312;27.152;2023-02-19T08:46:01;100523.89;;;24.54;26.40
34658;BME280;20865;43.312;27.152;2023-02-19T08:48:29;100518.87;;;24.70;26.20
34658;BME280;20865;43.312;27.152;2023-02-19T08:50:58;100523.81;;;24.77;26.42
34658;BME280;20865;43.312;27.152;2023-02-19T08:53:28;100522.52;;;24.86;26.44
34658;BME280;20865;43.312;27.152;2023-02-19T08:55:58;100526.06;;;24.92;25.87
34658;BME280;20865;43.312;27.152;2023-02-19T08:58:25;100524.00;;;25.06;25.81
34658;BME280;20865;43.312;27.152;2023-02-19T09:00:53;100522.73;;;25.10;25.70
34658;BME280;20865;43.312;27.152;2023-02-19T09:03:20;100524.83;;;24.97;25.72
34658;BME280;20865;43.312;27.152;2023-02-19T09:05:48;100536.40;;;25.10;26.02
34658;BME280;20865;43.312;27.152;2023-02-19T09:08:16;100540.00;;;25.16;25.61
34658;BME280;20865;43.312;27.152;2023-02-19T09:10:45;100526.75;;;25.11;25.95
34658;BME280;20865;43.312;27.152;2023-02-19T09:13:12;100525.33;;;25.17;25.90
34658;BME280;20865;43.312;27.152;2023-02-19T09:15:40;100531.87;;;25.26;25.81
34658;BME280;20865;43.312;27.152;2023-02-19T09:18:07;100522.39;;;25.30;25.63
34658;BME280;20865;43.312;27.152;2023-02-19T09:20:35;100513.14;;;25.36;25.71
34658;BME280;20865;43.312;27.152;2023-02-19T09:23:02;100506.75;;;25.41;25.65
34658;BME280;20865;43.312;27.152;2023-02-19T09:25:30;100509.30;;;25.49;25.53
34658;BME280;20865;43.312;27.152;2023-02-19T09:27:58;100517.94;;;25.59;25.60
34658;BME280;20865;43.312;27.152;2023-02-19T09:30:25;100504.15;;;25.55;25.51
34658;BME280;20865;43.312;27.152;2023-02-19T09:32:53;100501.28;;;25.41;25.55
34658;BME280;20865;43.312;27.152;2023-02-19T09:35:21;100495.86;;;25.51;25.57
34658;BME280;20865;43.312;27.152;2023-02-19T09:37:48;100500.55;;;25.55;25.33
34658;BME280;20865;43.312;27.152;2023-02-19T09:40:16;100493.06;;;25.72;25.07
34658;BME280;20865;43.312;27.152;2023-02-19T09:42:45;100496.70;;;25.42;25.21
34658;BME280;20865;43.312;27.152;2023-02-19T09:45:20;100503.34;;;25.34;25.34
34658;BME280;20865;43.312;27.152;2023-02-19T09:47:47;100515.70;;;25.28;25.84
34658;BME280;20865;43.312;27.152;2023-02-19T09:50:18;100510.80;;;25.16;25.84
34658;BME280;20865;43.312;27.152;2023-02-19T09:52:51;100513.66;;;24.94;25.72
34658;BME280;20865;43.312;27.152;2023-02-19T09:55:33;100519.45;;;24.80;26.00
34658;BME280;20865;43.312;27.152;2023-02-19T10:00:52;100498.31;;;24.82;26.79
34658;BME280;20865;43.312;27.152;2023-02-19T10:03:30;100496.44;;;24.82;26.82
34658;BME280;20865;43.312;27.152;2023-02-19T10:05:57;100486.50;;;24.87;26.83
34658;BME280;20865;43.312;27.152;2023-02-19T10:08:29;100486.16;;;25.01;26.62
34658;BME280;20865;43.312;27.152;2023-02-19T10:10:56;100483.55;;;25.00;26.22
34658;BME280;20865;43.312;27.152;2023-02-19T10:14:11;100479.28;;;24.86;26.04
34658;BME280;20865;43.312;27.152;2023-02-19T10:15:59;100485.63;;;25.07;26.40
34658;BME280;20865;43.312;27.152;2023-02-19T10:18:34;100474.40;;;25.10;26.43
34658;BME280;20865;43.312;27.152;2023-02-19T10:20:57;100476.19;;;25.11;26.84
34658;BME280;20865;43.312;27.152;2023-02-19T10:23:25;100470.39;;;25.20;26.37
34658;BME280;20865;43.312;27.152;2023-02-19T10:25:55;100465.33;;;25.31;26.20
34658;BME280;20865;43.312;27.152;2023-02-19T10:28:29;100458.88;;;25.32;26.41
34658;BME280;20865;43.312;27.152;2023-02-19T10:30:59;100452.14;;;25.36;25.99
34658;BME280;20865;43.312;27.152;2023-02-19T10:33:27;100449.06;;;25.45;25.62
34658;BME280;20865;43.312;27.152;2023-02-19T10:36:04;100449.38;;;25.51;25.86
34658;BME280;20865;43.312;27.152;2023-02-19T10:38:35;100447.73;;;25.54;25.61
34658;BME280;20865;43.312;27.152;2023-02-19T10:41:16;100432.34;;;25.53;25.33
34658;BME280;20865;43.312;27.152;2023-02-19T10:43:41;100423.11;;;25.29;25.56
34658;BME280;20865;43.312;27.152;2023-02-19T10:46:17;100424.75;;;25.26;25.34
34658;BME280;20865;43.312;27.152;2023-02-19T10:48:54;100421.97;;;25.16;25.62
34658;BME280;20865;43.312;27.152;2023-02-19T10:51:31;100407.77;;;25.23;25.83
34658;BME280;20865;43.312;27.152;2023-02-19T10:54:16;100407.80;;;25.17;25.89
34658;BME280;20865;43.312;27.152;2023-02-19T10:56:45;100398.59;;;25.33;25.98
34658;BME280;20865;43.312;27.152;2023-02-19T10:59:22;100394.26;;;25.31;25.46
34658;BME280;20865;43.312;27.152;2023-02-19T11:01:54;100394.83;;;25.25;25.60
34658;BME280;20865;43.312;27.152;2023-02-19T11:04:24;100387.73;;;25.37;25.06
34658;BME280;20865;43.312;27.152;2023-02-19T11:06:54;100400.77;;;25.39;25.52
34658;BME280;20865;43.312;27.152;2023-02-19T11:09:36;100408.08;;;25.54;25.28
34658;BME280;20865;43.312;27.152;2023-02-19T11:12:03;100403.07;;;25.59;24.96
34658;BME280;20865;43.312;27.152;2023-02-19T11:14:32;100395.58;;;25.36;25.04
34658;BME280;20865;43.312;27.152;2023-02-19T11:17:02;100403.04;;;25.50;25.15
34658;BME280;20865;43.312;27.152;2023-02-19T11:19:44;100404.44;;;25.59;25.09
34658;BME280;20865;43.312;27.152;2023-02-19T11:22:31;100395.30;;;25.64;24.79
34658;BME280;20865;43.312;27.152;2023-02-19T11:25:05;100385.70;;;25.55;24.89
34658;BME280;20865;43.312;27.152;2023-02-19T11:27:30;100390.84;;;25.63;25.03
34658;BME280;20865;43.312;27.152;2023-02-19T11:31:11;100375.52;;;25.66;25.18
34658;BME280;20865;43.312;27.152;2023-02-19T11:32:48;100365.95;;;25.66;24.78
34658;BME280;20865;43.312;27.152;2023-02-19T11:35:19;100350.70;;;25.83;25.00
34658;BME280;20865;43.312;27.152;2023-02-19T11:38:01;100340.06;;;26.00;24.87
34658;BME280;20865;43.312;27.152;2023-02-19T11:46:44;100330.80;;;25.72;25.16
34658;BME280;20865;43.312;27.152;2023-02-19T11:57:03;100317.36;;;25.74;24.96
34658;BME280;20865;43.312;27.152;2023-02-19T11:59:36;100318.66;;;25.70;24.99
34658;BME280;20865;43.312;27.152;2023-02-19T12:04:46;100310.98;;;25.35;25.08
34658;BME280;20865;43.312;27.152;2023-02-19T12:10:15;100312.21;;;25.11;25.08
34658;BME280;20865;43.312;27.152;2023-02-19T12:28:51;100283.50;;;24.35;25.65
34658;BME280;20865;43.312;27.152;2023-02-19T12:37:07;100283.26;;;24.32;26.44
34658;BME280;20865;43.312;27.152;2023-02-19T12:39:46;100285.96;;;24.38;26.40
34658;BME280;20865;43.312;27.152;2023-02-19T12:42:37;100278.13;;;24.44;26.28
34658;BME280;20865;43.312;27.152;2023-02-19T12:47:53;100279.94;;;24.29;26.50
34658;BME280;20865;43.312;27.152;2023-02-19T12:50:17;100266.23;;;23.98;27.17
34658;BME280;20865;43.312;27.152;2023-02-19T12:52:47;100267.72;;;24.38;27.00
34658;BME280;20865;43.312;27.152;2023-02-19T12:55:30;100266.23;;;24.40;26.79
34658;BME280;20865;43.312;27.152;2023-02-19T12:58:00;100254.95;;;24.54;26.92
34658;BME280;20865;43.312;27.152;2023-02-19T13:00:31;100262.33;;;24.63;26.64
34658;BME280;20865;43.312;27.152;2023-02-19T13:03:17;100258.39;;;24.71;26.28
34658;BME280;20865;43.312;27.152;2023-02-19T13:09:01;100256.95;;;24.83;26.18
34658;BME280;20865;43.312;27.152;2023-02-19T13:11:43;100251.95;;;24.73;26.20
34658;BME280;20865;43.312;27.152;2023-02-19T13:17:25;100257.03;;;24.71;26.10
34658;BME280;20865;43.312;27.152;2023-02-19T13:19:31;100255.31;;;24.70;26.21
34658;BME280;20865;43.312;27.152;2023-02-19T13:22:07;100260.80;;;24.55;25.87
34658;BME280;20865;43.312;27.152;2023-02-19T13:24:51;100262.79;;;24.32;26.20
34658;BME280;20865;43.312;27.152;2023-02-19T13:27:41;100266.19;;;24.61;25.88
34658;BME280;20865;43.312;27.152;2023-02-19T13:30:29;100261.47;;;24.63;25.21
34658;BME280;20865;43.312;27.152;2023-02-19T13:33:01;100252.88;;;24.52;25.37
34658;BME280;20865;43.312;27.152;2023-02-19T13:38:14;100261.06;;;24.52;25.14
34658;BME280;20865;43.312;27.152;2023-02-19T13:40:58;100237.97;;;24.51;25.38
34658;BME280;20865;43.312;27.152;2023-02-19T13:43:30;100251.78;;;24.28;25.87
34658;BME280;20865;43.312;27.152;2023-02-19T13:46:03;100249.97;;;24.38;25.96
34658;BME280;20865;43.312;27.152;2023-02-19T13:48:32;100248.03;;;24.50;25.82
34658;BME280;20865;43.312;27.152;2023-02-19T13:59:22;100242.03;;;24.56;25.42
34658;BME280;20865;43.312;27.152;2023-02-19T14:04:46;100240.08;;;24.53;25.42
34658;BME280;20865;43.312;27.152;2023-02-19T14:09:48;100243.42;;;24.41;25.54
34658;BME280;20865;43.312;27.152;2023-02-19T14:12:19;100237.13;;;24.29;25.70
34658;BME280;20865;43.312;27.152;2023-02-19T14:14:55;100231.13;;;24.35;25.83
34658;BME280;20865;43.312;27.152;2023-02-19T14:17:41;100242.05;;;24.35;25.84
34658;BME280;20865;43.312;27.152;2023-02-19T14:23:14;100229.47;;;24.08;25.74
34658;BME280;20865;43.312;27.152;2023-02-19T14:25:50;100230.48;;;24.07;25.78
34658;BME280;20865;43.312;27.152;2023-02-19T14:31:08;100233.53;;;24.13;25.89
34658;BME280;20865;43.312;27.152;2023-02-19T14:33:43;100237.51;;;24.09;25.89
34658;BME280;20865;43.312;27.152;2023-02-19T14:36:31;100237.41;;;24.05;25.92
34658;BME280;20865;43.312;27.152;2023-02-19T14:39:16;100232.38;;;24.00;25.87
34658;BME280;20865;43.312;27.152;2023-02-19T14:41:52;100239.81;;;23.98;25.90
34658;BME280;20865;43.312;27.152;2023-02-19T14:44:33;100238.02;;;23.88;26.19
34658;BME280;20865;43.312;27.152;2023-02-19T14:47:05;100238.52;;;23.87;26.25